This is the latest recevied weather packets stored in our database for station/object KE8DDT-7. If no packets are shown the sender has not sent any weather packets the latest 10 day(s).
| Time | Temp. | Humidity | Pressure | Rain* | Wind** | Luminosity | Snow |
|---|---|---|---|---|---|---|---|
| 1777132957 | 10.56° C | 86% | 1005.1 hPa | 0 mm | - | 120 W/m² | - |
| 1777132657 | 10.56° C | 86% | 1005 hPa | 0 mm | - | 146 W/m² | - |
| 1777132357 | 10.56° C | 85% | 1004.9 hPa | 0 mm | - | 146 W/m² | - |
| 1777132057 | 10.56° C | 86% | 1004.9 hPa | 0 mm | - | 163 W/m² | - |
| 1777131757 | 10.56° C | 86% | 1004.8 hPa | 0 mm | - | 162 W/m² | - |
| 1777131457 | 10° C | 86% | 1004.8 hPa | 0 mm | - | 190 W/m² | - |
| 1777131157 | 10° C | 86% | 1004.7 hPa | 0 mm | - | 181 W/m² | - |
| 1777130857 | 10° C | 87% | 1004.8 hPa | 0 mm | - | 153 W/m² | - |
| 1777130557 | 10° C | 87% | 1004.7 hPa | 0 mm | - | 139 W/m² | - |
| 1777130258 | 10° C | 87% | 1004.7 hPa | 0 mm | - | 132 W/m² | - |
| 1777129957 | 10° C | 87% | 1004.7 hPa | 0 mm | - | 130 W/m² | - |
| 1777129657 | 10° C | 88% | 1004.7 hPa | 0 mm | - | 74 W/m² | - |
| 1777129357 | 10° C | 87% | 1004.6 hPa | 0 mm | - | 86 W/m² | - |
| 1777129057 | 10.56° C | 87% | 1004.5 hPa | 0 mm | - | 86 W/m² | - |
| 1777128757 | 10.56° C | 87% | 1004.3 hPa | 0 mm | - | 91 W/m² | - |
| 1777128457 | 10.56° C | 88% | 1004.3 hPa | 0 mm | - | 86 W/m² | - |
| 1777128157 | 10.56° C | 88% | 1004.1 hPa | 0 mm | - | 148 W/m² | - |
| 1777127857 | 10.56° C | 88% | 1004 hPa | 0 mm | - | 156 W/m² | - |
| 1777127557 | 10.56° C | 88% | 1004.1 hPa | 0 mm | - | 105 W/m² | - |
| 1777127016 | 10.56° C | 87% | 1004.1 hPa | 0 mm | - | 88 W/m² | - |
| 1777126716 | 10.56° C | 87% | 1004.2 hPa | 0 mm | - | 67 W/m² | - |
| 1777126416 | 10.56° C | 87% | 1004.1 hPa | 0 mm | - | 63 W/m² | - |
| 1777126116 | 10.56° C | 87% | 1004.1 hPa | 0 mm | - | 76 W/m² | - |
| 1777125816 | 10.56° C | 87% | 1004.2 hPa | 0 mm | - | 56 W/m² | - |
| 1777125516 | 11.11° C | 87% | 1004.2 hPa | 0 mm | - | 39 W/m² | - |
* Rain latest hour (hover to see other rain measurements)
** Current wind speed in m/s (hover to see current wind gust speed)